sensor_id;sensor_type;location;lat;lon;timestamp;P1;durP1;ratioP1;P2;durP2;ratioP2
46439;SDS011;32138;50.966;6.968;2023-03-03T00:00:23;38.40;;;28.00;;
46439;SDS011;32138;50.966;6.968;2023-03-03T00:01:24;40.33;;;26.52;;
46439;SDS011;32138;50.966;6.968;2023-03-03T00:02:25;36.67;;;29.33;;
46439;SDS011;32138;50.966;6.968;2023-03-03T00:03:26;38.47;;;28.42;;
46439;SDS011;32138;50.966;6.968;2023-03-03T00:04:26;37.33;;;27.67;;
46439;SDS011;32138;50.966;6.968;2023-03-03T00:05:27;36.90;;;27.75;;
46439;SDS011;32138;50.966;6.968;2023-03-03T00:06:28;38.17;;;27.75;;
46439;SDS011;32138;50.966;6.968;2023-03-03T00:07:29;38.78;;;27.85;;
46439;SDS011;32138;50.966;6.968;2023-03-03T00:08:30;39.25;;;27.90;;
46439;SDS011;32138;50.966;6.968;2023-03-03T00:09:31;42.25;;;30.23;;
46439;SDS011;32138;50.966;6.968;2023-03-03T00:10:32;39.70;;;28.58;;
46439;SDS011;32138;50.966;6.968;2023-03-03T00:11:33;38.88;;;27.38;;
46439;SDS011;32138;50.966;6.968;2023-03-03T00:12:34;40.10;;;28.70;;
46439;SDS011;32138;50.966;6.968;2023-03-03T00:13:39;39.70;;;28.60;;
46439;SDS011;32138;50.966;6.968;2023-03-03T00:14:48;36.53;;;26.50;;
46439;SDS011;32138;50.966;6.968;2023-03-03T00:15:50;39.50;;;27.52;;
46439;SDS011;32138;50.966;6.968;2023-03-03T00:16:52;38.53;;;28.95;;
46439;SDS011;32138;50.966;6.968;2023-03-03T00:17:54;37.80;;;27.98;;
46439;SDS011;32138;50.966;6.968;2023-03-03T00:18:55;40.00;;;27.88;;
46439;SDS011;32138;50.966;6.968;2023-03-03T00:19:57;42.15;;;28.98;;
46439;SDS011;32138;50.966;6.968;2023-03-03T00:20:58;37.78;;;27.38;;
46439;SDS011;32138;50.966;6.968;2023-03-03T00:22:01;39.25;;;28.95;;
46439;SDS011;32138;50.966;6.968;2023-03-03T00:23:44;39.67;;;28.98;;
46439;SDS011;32138;50.966;6.968;2023-03-03T00:24:36;37.42;;;26.77;;
46439;SDS011;32138;50.966;6.968;2023-03-03T00:25:37;37.95;;;27.73;;
46439;SDS011;32138;50.966;6.968;2023-03-03T00:26:48;41.97;;;27.20;;
46439;SDS011;32138;50.966;6.968;2023-03-03T00:28:06;36.65;;;28.42;;
46439;SDS011;32138;50.966;6.968;2023-03-03T00:30:40;40.55;;;28.08;;
46439;SDS011;32138;50.966;6.968;2023-03-03T00:31:40;41.25;;;29.15;;
46439;SDS011;32138;50.966;6.968;2023-03-03T00:32:43;38.78;;;28.35;;
46439;SDS011;32138;50.966;6.968;2023-03-03T00:33:53;35.80;;;27.30;;
46439;SDS011;32138;50.966;6.968;2023-03-03T00:34:55;39.83;;;28.55;;
46439;SDS011;32138;50.966;6.968;2023-03-03T00:36:27;41.03;;;28.70;;
46439;SDS011;32138;50.966;6.968;2023-03-03T00:37:37;40.88;;;28.50;;
46439;SDS011;32138;50.966;6.968;2023-03-03T00:38:40;37.80;;;28.77;;
46439;SDS011;32138;50.966;6.968;2023-03-03T00:39:41;40.28;;;29.25;;
46439;SDS011;32138;50.966;6.968;2023-03-03T00:40:42;41.85;;;30.13;;
46439;SDS011;32138;50.966;6.968;2023-03-03T00:41:44;36.83;;;27.27;;
46439;SDS011;32138;50.966;6.968;2023-03-03T00:42:46;37.97;;;29.33;;
46439;SDS011;32138;50.966;6.968;2023-03-03T00:43:53;40.13;;;29.30;;
46439;SDS011;32138;50.966;6.968;2023-03-03T00:44:57;39.35;;;28.73;;
46439;SDS011;32138;50.966;6.968;2023-03-03T00:45:59;40.28;;;29.05;;
46439;SDS011;32138;50.966;6.968;2023-03-03T00:49:37;39.63;;;28.77;;
46439;SDS011;32138;50.966;6.968;2023-03-03T00:50:38;41.03;;;30.13;;
46439;SDS011;32138;50.966;6.968;2023-03-03T00:51:42;46.15;;;30.20;;
46439;SDS011;32138;50.966;6.968;2023-03-03T00:52:44;38.78;;;30.08;;
46439;SDS011;32138;50.966;6.968;2023-03-03T00:53:56;38.83;;;29.23;;
46439;SDS011;32138;50.966;6.968;2023-03-03T00:54:57;41.33;;;28.85;;
46439;SDS011;32138;50.966;6.968;2023-03-03T00:55:58;43.90;;;31.98;;
46439;SDS011;32138;50.966;6.968;2023-03-03T00:56:59;38.75;;;29.10;;
46439;SDS011;32138;50.966;6.968;2023-03-03T00:58:00;41.58;;;29.95;;
46439;SDS011;32138;50.966;6.968;2023-03-03T00:59:01;41.28;;;29.98;;
46439;SDS011;32138;50.966;6.968;2023-03-03T01:00:02;40.17;;;29.35;;
46439;SDS011;32138;50.966;6.968;2023-03-03T01:01:04;44.45;;;31.38;;
46439;SDS011;32138;50.966;6.968;2023-03-03T01:02:05;41.30;;;31.25;;
46439;SDS011;32138;50.966;6.968;2023-03-03T01:03:07;41.42;;;29.85;;
46439;SDS011;32138;50.966;6.968;2023-03-03T01:04:12;43.22;;;31.25;;
46439;SDS011;32138;50.966;6.968;2023-03-03T01:05:14;44.17;;;32.03;;
46439;SDS011;32138;50.966;6.968;2023-03-03T01:06:16;42.33;;;30.33;;
46439;SDS011;32138;50.966;6.968;2023-03-03T01:07:17;43.28;;;31.00;;
46439;SDS011;32138;50.966;6.968;2023-03-03T01:08:18;43.13;;;32.70;;
46439;SDS011;32138;50.966;6.968;2023-03-03T01:09:21;42.00;;;29.92;;
46439;SDS011;32138;50.966;6.968;2023-03-03T01:10:22;43.25;;;31.08;;
46439;SDS011;32138;50.966;6.968;2023-03-03T01:11:24;42.05;;;31.35;;
46439;SDS011;32138;50.966;6.968;2023-03-03T01:12:27;44.25;;;31.45;;
46439;SDS011;32138;50.966;6.968;2023-03-03T01:13:31;44.67;;;32.35;;
46439;SDS011;32138;50.966;6.968;2023-03-03T01:14:34;39.95;;;30.67;;
46439;SDS011;32138;50.966;6.968;2023-03-03T01:15:35;40.13;;;31.77;;
46439;SDS011;32138;50.966;6.968;2023-03-03T01:16:38;45.22;;;31.30;;
46439;SDS011;32138;50.966;6.968;2023-03-03T01:17:41;43.65;;;32.47;;
46439;SDS011;32138;50.966;6.968;2023-03-03T01:18:42;44.30;;;33.50;;
46439;SDS011;32138;50.966;6.968;2023-03-03T01:19:43;45.75;;;33.22;;
46439;SDS011;32138;50.966;6.968;2023-03-03T01:20:43;44.92;;;31.75;;
46439;SDS011;32138;50.966;6.968;2023-03-03T01:21:44;41.88;;;30.98;;
46439;SDS011;32138;50.966;6.968;2023-03-03T01:22:45;40.15;;;29.80;;
46439;SDS011;32138;50.966;6.968;2023-03-03T01:23:46;46.58;;;33.33;;
46439;SDS011;32138;50.966;6.968;2023-03-03T01:24:47;46.15;;;32.05;;
46439;SDS011;32138;50.966;6.968;2023-03-03T01:25:47;44.15;;;32.35;;
46439;SDS011;32138;50.966;6.968;2023-03-03T01:26:48;43.97;;;33.75;;
46439;SDS011;32138;50.966;6.968;2023-03-03T01:27:49;43.17;;;30.42;;
46439;SDS011;32138;50.966;6.968;2023-03-03T01:28:50;48.42;;;32.58;;
46439;SDS011;32138;50.966;6.968;2023-03-03T01:29:51;43.22;;;31.00;;
46439;SDS011;32138;50.966;6.968;2023-03-03T01:30:52;44.22;;;31.65;;
46439;SDS011;32138;50.966;6.968;2023-03-03T01:31:52;46.53;;;33.08;;
46439;SDS011;32138;50.966;6.968;2023-03-03T01:32:53;45.90;;;32.53;;
46439;SDS011;32138;50.966;6.968;2023-03-03T01:33:54;45.53;;;33.33;;
46439;SDS011;32138;50.966;6.968;2023-03-03T01:34:55;45.65;;;33.58;;
46439;SDS011;32138;50.966;6.968;2023-03-03T01:35:55;50.65;;;36.30;;
46439;SDS011;32138;50.966;6.968;2023-03-03T01:36:56;44.05;;;34.08;;
46439;SDS011;32138;50.966;6.968;2023-03-03T01:37:57;46.08;;;33.50;;
46439;SDS011;32138;50.966;6.968;2023-03-03T01:38:58;51.28;;;36.15;;
46439;SDS011;32138;50.966;6.968;2023-03-03T01:40:00;47.53;;;34.20;;
46439;SDS011;32138;50.966;6.968;2023-03-03T01:41:00;47.67;;;35.55;;
46439;SDS011;32138;50.966;6.968;2023-03-03T01:42:02;47.60;;;33.97;;
46439;SDS011;32138;50.966;6.968;2023-03-03T01:43:03;47.30;;;33.72;;
46439;SDS011;32138;50.966;6.968;2023-03-03T01:44:04;51.42;;;34.42;;
46439;SDS011;32138;50.966;6.968;2023-03-03T01:47:27;47.45;;;36.20;;
46439;SDS011;32138;50.966;6.968;2023-03-03T01:48:36;47.83;;;34.83;;
46439;SDS011;32138;50.966;6.968;2023-03-03T01:49:48;47.80;;;33.60;;
46439;SDS011;32138;50.966;6.968;2023-03-03T01:52:03;44.67;;;32.22;;
46439;SDS011;32138;50.966;6.968;2023-03-03T01:53:18;50.58;;;35.53;;
46439;SDS011;32138;50.966;6.968;2023-03-03T01:54:29;48.50;;;34.28;;
46439;SDS011;32138;50.966;6.968;2023-03-03T01:55:38;51.38;;;35.40;;
46439;SDS011;32138;50.966;6.968;2023-03-03T01:56:40;49.40;;;36.00;;
46439;SDS011;32138;50.966;6.968;2023-03-03T01:57:47;51.55;;;36.20;;
46439;SDS011;32138;50.966;6.968;2023-03-03T01:59:17;46.28;;;34.20;;
46439;SDS011;32138;50.966;6.968;2023-03-03T02:00:23;48.13;;;35.30;;
46439;SDS011;32138;50.966;6.968;2023-03-03T02:01:25;49.60;;;35.33;;
46439;SDS011;32138;50.966;6.968;2023-03-03T02:02:28;47.10;;;34.20;;
46439;SDS011;32138;50.966;6.968;2023-03-03T02:03:30;44.40;;;33.55;;
46439;SDS011;32138;50.966;6.968;2023-03-03T02:04:33;47.83;;;33.85;;
46439;SDS011;32138;50.966;6.968;2023-03-03T02:05:35;45.30;;;34.60;;
46439;SDS011;32138;50.966;6.968;2023-03-03T02:06:37;49.03;;;36.20;;
46439;SDS011;32138;50.966;6.968;2023-03-03T02:07:43;47.40;;;32.85;;
46439;SDS011;32138;50.966;6.968;2023-03-03T02:08:50;49.40;;;35.90;;
46439;SDS011;32138;50.966;6.968;2023-03-03T02:10:06;47.78;;;33.92;;
46439;SDS011;32138;50.966;6.968;2023-03-03T02:11:11;48.88;;;33.92;;
46439;SDS011;32138;50.966;6.968;2023-03-03T02:12:14;47.80;;;34.80;;
46439;SDS011;32138;50.966;6.968;2023-03-03T02:13:18;45.90;;;32.95;;
46439;SDS011;32138;50.966;6.968;2023-03-03T02:14:19;48.55;;;34.63;;
46439;SDS011;32138;50.966;6.968;2023-03-03T02:15:21;50.78;;;36.35;;
46439;SDS011;32138;50.966;6.968;2023-03-03T02:16:28;50.35;;;35.75;;
46439;SDS011;32138;50.966;6.968;2023-03-03T02:17:29;47.22;;;34.95;;
46439;SDS011;32138;50.966;6.968;2023-03-03T02:18:30;53.55;;;35.65;;
46439;SDS011;32138;50.966;6.968;2023-03-03T02:22:11;47.15;;;33.95;;
46439;SDS011;32138;50.966;6.968;2023-03-03T02:23:19;53.92;;;36.67;;
46439;SDS011;32138;50.966;6.968;2023-03-03T02:24:55;49.40;;;33.72;;
46439;SDS011;32138;50.966;6.968;2023-03-03T02:26:13;46.90;;;33.47;;
46439;SDS011;32138;50.966;6.968;2023-03-03T02:27:17;53.88;;;35.33;;
46439;SDS011;32138;50.966;6.968;2023-03-03T02:28:18;48.78;;;35.67;;
46439;SDS011;32138;50.966;6.968;2023-03-03T02:29:20;54.70;;;35.33;;
46439;SDS011;32138;50.966;6.968;2023-03-03T02:30:21;52.95;;;37.10;;
46439;SDS011;32138;50.966;6.968;2023-03-03T02:31:25;56.55;;;36.13;;
46439;SDS011;32138;50.966;6.968;2023-03-03T02:32:27;51.75;;;35.67;;
46439;SDS011;32138;50.966;6.968;2023-03-03T02:33:28;47.60;;;35.03;;
46439;SDS011;32138;50.966;6.968;2023-03-03T02:34:29;53.85;;;36.00;;
46439;SDS011;32138;50.966;6.968;2023-03-03T02:36:36;53.22;;;34.97;;
46439;SDS011;32138;50.966;6.968;2023-03-03T02:37:38;51.63;;;36.22;;
46439;SDS011;32138;50.966;6.968;2023-03-03T02:40:10;54.97;;;36.28;;
46439;SDS011;32138;50.966;6.968;2023-03-03T02:41:25;55.83;;;36.95;;
46439;SDS011;32138;50.966;6.968;2023-03-03T02:42:50;52.20;;;35.92;;
46439;SDS011;32138;50.966;6.968;2023-03-03T02:44:00;49.60;;;34.75;;
46439;SDS011;32138;50.966;6.968;2023-03-03T02:45:07;58.92;;;37.22;;
46439;SDS011;32138;50.966;6.968;2023-03-03T02:46:08;54.60;;;35.28;;
46439;SDS011;32138;50.966;6.968;2023-03-03T02:47:08;52.63;;;35.35;;
46439;SDS011;32138;50.966;6.968;2023-03-03T02:48:09;54.90;;;36.88;;
46439;SDS011;32138;50.966;6.968;2023-03-03T02:49:11;51.13;;;36.10;;
46439;SDS011;32138;50.966;6.968;2023-03-03T02:50:15;51.25;;;35.45;;
46439;SDS011;32138;50.966;6.968;2023-03-03T02:51:16;57.72;;;38.28;;
46439;SDS011;32138;50.966;6.968;2023-03-03T02:52:16;50.80;;;36.40;;
46439;SDS011;32138;50.966;6.968;2023-03-03T02:53:18;53.67;;;37.92;;
46439;SDS011;32138;50.966;6.968;2023-03-03T02:54:19;53.38;;;37.53;;
46439;SDS011;32138;50.966;6.968;2023-03-03T02:55:22;48.95;;;34.63;;
46439;SDS011;32138;50.966;6.968;2023-03-03T02:56:23;54.08;;;37.20;;
46439;SDS011;32138;50.966;6.968;2023-03-03T02:57:24;55.50;;;36.25;;
46439;SDS011;32138;50.966;6.968;2023-03-03T02:58:25;53.00;;;36.55;;
46439;SDS011;32138;50.966;6.968;2023-03-03T02:59:25;53.13;;;36.65;;
46439;SDS011;32138;50.966;6.968;2023-03-03T03:00:27;53.15;;;35.70;;
46439;SDS011;32138;50.966;6.968;2023-03-03T03:01:28;51.90;;;36.10;;
46439;SDS011;32138;50.966;6.968;2023-03-03T03:02:31;54.15;;;35.28;;
46439;SDS011;32138;50.966;6.968;2023-03-03T03:03:31;54.03;;;36.17;;
46439;SDS011;32138;50.966;6.968;2023-03-03T03:04:32;50.55;;;35.05;;
46439;SDS011;32138;50.966;6.968;2023-03-03T03:05:33;53.08;;;35.42;;
46439;SDS011;32138;50.966;6.968;2023-03-03T03:06:34;52.78;;;36.10;;
46439;SDS011;32138;50.966;6.968;2023-03-03T03:07:34;50.55;;;34.33;;
46439;SDS011;32138;50.966;6.968;2023-03-03T03:08:35;49.63;;;34.17;;
46439;SDS011;32138;50.966;6.968;2023-03-03T03:09:36;53.30;;;35.33;;
46439;SDS011;32138;50.966;6.968;2023-03-03T03:10:36;55.75;;;36.28;;
46439;SDS011;32138;50.966;6.968;2023-03-03T03:11:37;52.47;;;36.70;;
46439;SDS011;32138;50.966;6.968;2023-03-03T03:12:38;50.67;;;35.35;;
46439;SDS011;32138;50.966;6.968;2023-03-03T03:13:39;50.67;;;35.03;;
46439;SDS011;32138;50.966;6.968;2023-03-03T03:14:39;56.00;;;36.08;;
46439;SDS011;32138;50.966;6.968;2023-03-03T03:15:40;49.15;;;35.10;;
46439;SDS011;32138;50.966;6.968;2023-03-03T03:16:41;55.95;;;37.63;;
46439;SDS011;32138;50.966;6.968;2023-03-03T03:17:42;56.20;;;38.35;;
46439;SDS011;32138;50.966;6.968;2023-03-03T03:18:42;54.40;;;36.80;;
46439;SDS011;32138;50.966;6.968;2023-03-03T03:19:43;55.45;;;36.17;;
46439;SDS011;32138;50.966;6.968;2023-03-03T03:20:44;54.83;;;36.03;;
46439;SDS011;32138;50.966;6.968;2023-03-03T03:21:45;52.40;;;35.90;;
46439;SDS011;32138;50.966;6.968;2023-03-03T03:22:46;55.75;;;38.03;;
46439;SDS011;32138;50.966;6.968;2023-03-03T03:23:46;54.08;;;35.65;;
46439;SDS011;32138;50.966;6.968;2023-03-03T03:24:47;49.80;;;35.75;;
46439;SDS011;32138;50.966;6.968;2023-03-03T03:25:48;53.38;;;36.67;;
46439;SDS011;32138;50.966;6.968;2023-03-03T03:26:49;52.92;;;34.60;;
46439;SDS011;32138;50.966;6.968;2023-03-03T03:27:49;53.72;;;35.95;;
46439;SDS011;32138;50.966;6.968;2023-03-03T03:28:50;50.00;;;34.83;;
46439;SDS011;32138;50.966;6.968;2023-03-03T03:29:51;50.55;;;34.78;;
46439;SDS011;32138;50.966;6.968;2023-03-03T03:30:52;54.03;;;35.63;;
46439;SDS011;32138;50.966;6.968;2023-03-03T03:31:53;51.22;;;35.25;;
46439;SDS011;32138;50.966;6.968;2023-03-03T03:32:54;52.13;;;35.00;;
46439;SDS011;32138;50.966;6.968;2023-03-03T03:33:54;58.20;;;37.90;;
46439;SDS011;32138;50.966;6.968;2023-03-03T03:34:55;49.28;;;34.92;;
46439;SDS011;32138;50.966;6.968;2023-03-03T03:35:56;47.53;;;33.38;;
46439;SDS011;32138;50.966;6.968;2023-03-03T03:36:59;51.90;;;34.30;;
46439;SDS011;32138;50.966;6.968;2023-03-03T03:37:59;54.03;;;36.25;;
46439;SDS011;32138;50.966;6.968;2023-03-03T03:39:01;57.95;;;38.03;;
46439;SDS011;32138;50.966;6.968;2023-03-03T03:40:02;52.70;;;36.47;;
46439;SDS011;32138;50.966;6.968;2023-03-03T03:41:04;49.47;;;34.92;;
46439;SDS011;32138;50.966;6.968;2023-03-03T03:42:06;53.35;;;35.50;;
46439;SDS011;32138;50.966;6.968;2023-03-03T03:43:07;51.13;;;34.70;;
46439;SDS011;32138;50.966;6.968;2023-03-03T03:44:08;52.50;;;34.58;;
46439;SDS011;32138;50.966;6.968;2023-03-03T03:45:09;50.67;;;34.30;;
46439;SDS011;32138;50.966;6.968;2023-03-03T03:46:14;50.78;;;35.63;;
46439;SDS011;32138;50.966;6.968;2023-03-03T03:47:15;54.40;;;35.72;;
46439;SDS011;32138;50.966;6.968;2023-03-03T03:48:15;55.50;;;36.03;;
46439;SDS011;32138;50.966;6.968;2023-03-03T03:49:18;54.47;;;35.70;;
46439;SDS011;32138;50.966;6.968;2023-03-03T03:50:19;52.25;;;35.75;;
46439;SDS011;32138;50.966;6.968;2023-03-03T03:51:20;51.80;;;36.15;;
46439;SDS011;32138;50.966;6.968;2023-03-03T03:52:20;50.28;;;34.30;;
46439;SDS011;32138;50.966;6.968;2023-03-03T03:53:21;54.95;;;35.65;;
46439;SDS011;32138;50.966;6.968;2023-03-03T03:54:22;52.17;;;33.63;;
46439;SDS011;32138;50.966;6.968;2023-03-03T03:55:23;47.72;;;32.38;;
46439;SDS011;32138;50.966;6.968;2023-03-03T03:56:23;49.58;;;32.15;;
46439;SDS011;32138;50.966;6.968;2023-03-03T03:57:24;49.65;;;34.75;;
46439;SDS011;32138;50.966;6.968;2023-03-03T03:58:25;50.60;;;34.78;;
46439;SDS011;32138;50.966;6.968;2023-03-03T03:59:26;50.78;;;33.67;;
46439;SDS011;32138;50.966;6.968;2023-03-03T04:00:27;54.65;;;35.17;;
46439;SDS011;32138;50.966;6.968;2023-03-03T04:01:28;51.53;;;33.95;;
46439;SDS011;32138;50.966;6.968;2023-03-03T04:02:28;49.72;;;33.05;;
46439;SDS011;32138;50.966;6.968;2023-03-03T04:03:29;50.00;;;32.88;;
46439;SDS011;32138;50.966;6.968;2023-03-03T04:04:30;50.97;;;32.28;;
46439;SDS011;32138;50.966;6.968;2023-03-03T04:05:31;45.90;;;31.15;;
46439;SDS011;32138;50.966;6.968;2023-03-03T04:06:31;45.85;;;32.17;;
46439;SDS011;32138;50.966;6.968;2023-03-03T04:07:32;48.13;;;31.48;;
46439;SDS011;32138;50.966;6.968;2023-03-03T04:08:33;48.42;;;32.78;;
46439;SDS011;32138;50.966;6.968;2023-03-03T04:09:34;48.05;;;32.75;;
46439;SDS011;32138;50.966;6.968;2023-03-03T04:10:34;47.45;;;33.53;;
46439;SDS011;32138;50.966;6.968;2023-03-03T04:11:35;48.28;;;32.30;;
46439;SDS011;32138;50.966;6.968;2023-03-03T04:12:36;45.33;;;31.17;;
46439;SDS011;32138;50.966;6.968;2023-03-03T04:13:39;46.70;;;31.30;;
46439;SDS011;32138;50.966;6.968;2023-03-03T04:14:40;46.47;;;31.85;;
46439;SDS011;32138;50.966;6.968;2023-03-03T04:15:41;42.25;;;30.25;;
46439;SDS011;32138;50.966;6.968;2023-03-03T04:16:42;45.78;;;31.83;;
46439;SDS011;32138;50.966;6.968;2023-03-03T04:17:43;42.15;;;31.00;;
46439;SDS011;32138;50.966;6.968;2023-03-03T04:18:44;45.83;;;29.52;;
46439;SDS011;32138;50.966;6.968;2023-03-03T04:19:44;47.15;;;32.35;;
46439;SDS011;32138;50.966;6.968;2023-03-03T04:20:45;43.20;;;28.42;;
46439;SDS011;32138;50.966;6.968;2023-03-03T04:21:46;49.08;;;32.03;;
46439;SDS011;32138;50.966;6.968;2023-03-03T04:22:48;45.65;;;30.13;;
46439;SDS011;32138;50.966;6.968;2023-03-03T04:23:49;47.47;;;31.55;;
46439;SDS011;32138;50.966;6.968;2023-03-03T04:24:49;47.05;;;32.13;;
46439;SDS011;32138;50.966;6.968;2023-03-03T04:25:50;47.45;;;31.27;;
46439;SDS011;32138;50.966;6.968;2023-03-03T04:26:51;45.47;;;29.95;;
46439;SDS011;32138;50.966;6.968;2023-03-03T04:27:52;43.35;;;29.20;;
46439;SDS011;32138;50.966;6.968;2023-03-03T04:28:53;42.40;;;29.75;;
46439;SDS011;32138;50.966;6.968;2023-03-03T04:29:53;42.75;;;29.13;;
46439;SDS011;32138;50.966;6.968;2023-03-03T04:30:54;36.67;;;26.92;;
46439;SDS011;32138;50.966;6.968;2023-03-03T04:31:55;44.63;;;30.60;;
46439;SDS011;32138;50.966;6.968;2023-03-03T04:32:56;39.10;;;28.65;;
46439;SDS011;32138;50.966;6.968;2023-03-03T04:33:56;43.33;;;28.90;;
46439;SDS011;32138;50.966;6.968;2023-03-03T04:34:57;41.25;;;27.85;;
46439;SDS011;32138;50.966;6.968;2023-03-03T04:35:58;42.60;;;29.25;;
46439;SDS011;32138;50.966;6.968;2023-03-03T04:36:59;42.08;;;28.83;;
46439;SDS011;32138;50.966;6.968;2023-03-03T04:38:00;43.10;;;27.90;;
46439;SDS011;32138;50.966;6.968;2023-03-03T04:39:01;42.85;;;30.08;;
46439;SDS011;32138;50.966;6.968;2023-03-03T04:40:03;42.33;;;29.02;;
46439;SDS011;32138;50.966;6.968;2023-03-03T04:41:05;42.72;;;29.17;;
46439;SDS011;32138;50.966;6.968;2023-03-03T04:42:06;38.25;;;27.23;;
46439;SDS011;32138;50.966;6.968;2023-03-03T04:43:07;41.08;;;27.10;;
46439;SDS011;32138;50.966;6.968;2023-03-03T04:44:09;36.80;;;26.45;;
46439;SDS011;32138;50.966;6.968;2023-03-03T04:45:10;37.13;;;27.38;;
46439;SDS011;32138;50.966;6.968;2023-03-03T04:46:10;42.03;;;28.23;;
46439;SDS011;32138;50.966;6.968;2023-03-03T04:47:11;40.33;;;28.02;;
46439;SDS011;32138;50.966;6.968;2023-03-03T04:48:12;41.05;;;29.17;;
46439;SDS011;32138;50.966;6.968;2023-03-03T04:49:13;41.28;;;27.80;;
46439;SDS011;32138;50.966;6.968;2023-03-03T04:50:13;43.15;;;28.65;;
46439;SDS011;32138;50.966;6.968;2023-03-03T04:51:14;41.45;;;29.48;;
46439;SDS011;32138;50.966;6.968;2023-03-03T04:52:15;39.35;;;28.23;;
46439;SDS011;32138;50.966;6.968;2023-03-03T04:53:16;41.28;;;27.42;;
46439;SDS011;32138;50.966;6.968;2023-03-03T04:54:17;47.28;;;30.20;;
46439;SDS011;32138;50.966;6.968;2023-03-03T04:55:18;44.47;;;30.00;;
46439;SDS011;32138;50.966;6.968;2023-03-03T04:56:18;45.85;;;29.50;;
46439;SDS011;32138;50.966;6.968;2023-03-03T04:57:19;43.80;;;28.92;;
46439;SDS011;32138;50.966;6.968;2023-03-03T04:58:20;44.15;;;28.77;;
46439;SDS011;32138;50.966;6.968;2023-03-03T04:59:21;42.17;;;29.17;;
46439;SDS011;32138;50.966;6.968;2023-03-03T05:00:22;41.90;;;27.85;;
46439;SDS011;32138;50.966;6.968;2023-03-03T05:01:23;39.25;;;27.15;;
46439;SDS011;32138;50.966;6.968;2023-03-03T05:02:23;42.70;;;28.92;;
46439;SDS011;32138;50.966;6.968;2023-03-03T05:03:24;43.35;;;30.35;;
46439;SDS011;32138;50.966;6.968;2023-03-03T05:04:26;39.63;;;28.60;;
46439;SDS011;32138;50.966;6.968;2023-03-03T05:05:27;43.63;;;29.80;;
46439;SDS011;32138;50.966;6.968;2023-03-03T05:06:27;39.95;;;28.73;;
46439;SDS011;32138;50.966;6.968;2023-03-03T05:07:28;43.10;;;27.65;;
46439;SDS011;32138;50.966;6.968;2023-03-03T05:08:29;40.10;;;28.05;;
46439;SDS011;32138;50.966;6.968;2023-03-03T05:09:30;42.25;;;29.00;;
46439;SDS011;32138;50.966;6.968;2023-03-03T05:10:31;40.63;;;27.75;;
46439;SDS011;32138;50.966;6.968;2023-03-03T05:11:31;42.40;;;29.88;;
46439;SDS011;32138;50.966;6.968;2023-03-03T05:12:32;40.50;;;28.25;;
46439;SDS011;32138;50.966;6.968;2023-03-03T05:13:33;38.30;;;26.55;;
46439;SDS011;32138;50.966;6.968;2023-03-03T05:14:34;43.65;;;29.48;;
46439;SDS011;32138;50.966;6.968;2023-03-03T05:15:35;45.92;;;29.98;;
46439;SDS011;32138;50.966;6.968;2023-03-03T05:16:35;41.00;;;29.08;;
46439;SDS011;32138;50.966;6.968;2023-03-03T05:17:36;41.92;;;29.17;;
46439;SDS011;32138;50.966;6.968;2023-03-03T05:18:37;41.55;;;28.10;;
46439;SDS011;32138;50.966;6.968;2023-03-03T05:19:38;43.35;;;29.63;;
46439;SDS011;32138;50.966;6.968;2023-03-03T05:20:39;42.22;;;29.52;;
46439;SDS011;32138;50.966;6.968;2023-03-03T05:21:41;45.90;;;29.33;;
46439;SDS011;32138;50.966;6.968;2023-03-03T05:22:41;39.40;;;27.55;;
46439;SDS011;32138;50.966;6.968;2023-03-03T05:23:42;40.72;;;29.73;;
46439;SDS011;32138;50.966;6.968;2023-03-03T05:24:43;42.72;;;29.60;;
46439;SDS011;32138;50.966;6.968;2023-03-03T05:25:48;44.35;;;29.33;;
46439;SDS011;32138;50.966;6.968;2023-03-03T05:26:49;44.55;;;28.10;;
46439;SDS011;32138;50.966;6.968;2023-03-03T05:27:50;41.80;;;29.48;;
46439;SDS011;32138;50.966;6.968;2023-03-03T05:28:51;44.78;;;29.50;;
46439;SDS011;32138;50.966;6.968;2023-03-03T05:29:51;43.67;;;29.52;;
46439;SDS011;32138;50.966;6.968;2023-03-03T05:30:52;45.22;;;28.75;;
46439;SDS011;32138;50.966;6.968;2023-03-03T05:31:53;45.40;;;28.35;;
46439;SDS011;32138;50.966;6.968;2023-03-03T05:32:54;45.38;;;31.20;;
46439;SDS011;32138;50.966;6.968;2023-03-03T05:33:54;39.88;;;27.33;;
46439;SDS011;32138;50.966;6.968;2023-03-03T05:34:55;42.15;;;28.60;;
46439;SDS011;32138;50.966;6.968;2023-03-03T05:35:56;45.15;;;30.15;;
46439;SDS011;32138;50.966;6.968;2023-03-03T05:36:57;41.15;;;29.05;;
46439;SDS011;32138;50.966;6.968;2023-03-03T05:37:58;44.55;;;29.48;;
46439;SDS011;32138;50.966;6.968;2023-03-03T05:38:58;42.40;;;29.58;;
46439;SDS011;32138;50.966;6.968;2023-03-03T05:39:59;43.05;;;29.70;;
46439;SDS011;32138;50.966;6.968;2023-03-03T05:41:00;43.05;;;30.33;;
46439;SDS011;32138;50.966;6.968;2023-03-03T05:42:01;45.88;;;30.92;;
46439;SDS011;32138;50.966;6.968;2023-03-03T05:43:02;41.70;;;29.13;;
46439;SDS011;32138;50.966;6.968;2023-03-03T05:44:02;46.58;;;32.15;;
46439;SDS011;32138;50.966;6.968;2023-03-03T05:45:03;40.75;;;29.48;;
46439;SDS011;32138;50.966;6.968;2023-03-03T05:46:05;42.85;;;29.00;;
46439;SDS011;32138;50.966;6.968;2023-03-03T05:47:05;40.15;;;28.45;;
46439;SDS011;32138;50.966;6.968;2023-03-03T05:48:06;45.40;;;31.25;;
46439;SDS011;32138;50.966;6.968;2023-03-03T05:49:09;45.70;;;30.23;;
46439;SDS011;32138;50.966;6.968;2023-03-03T05:50:09;45.97;;;31.20;;
46439;SDS011;32138;50.966;6.968;2023-03-03T05:51:11;40.83;;;27.85;;
46439;SDS011;32138;50.966;6.968;2023-03-03T05:52:12;42.42;;;29.33;;
46439;SDS011;32138;50.966;6.968;2023-03-03T05:53:13;41.75;;;29.15;;
46439;SDS011;32138;50.966;6.968;2023-03-03T05:54:14;42.45;;;29.05;;
46439;SDS011;32138;50.966;6.968;2023-03-03T05:55:14;38.85;;;26.60;;
46439;SDS011;32138;50.966;6.968;2023-03-03T05:56:16;37.67;;;26.52;;
46439;SDS011;32138;50.966;6.968;2023-03-03T05:57:17;40.88;;;27.85;;
46439;SDS011;32138;50.966;6.968;2023-03-03T05:58:17;42.08;;;27.20;;
46439;SDS011;32138;50.966;6.968;2023-03-03T05:59:18;40.70;;;27.40;;
46439;SDS011;32138;50.966;6.968;2023-03-03T06:00:19;40.95;;;27.10;;
46439;SDS011;32138;50.966;6.968;2023-03-03T06:01:20;40.03;;;27.15;;
46439;SDS011;32138;50.966;6.968;2023-03-03T06:02:21;38.97;;;27.42;;
46439;SDS011;32138;50.966;6.968;2023-03-03T06:03:22;40.03;;;27.05;;
46439;SDS011;32138;50.966;6.968;2023-03-03T06:04:23;40.92;;;28.42;;
46439;SDS011;32138;50.966;6.968;2023-03-03T06:05:24;41.05;;;27.67;;
46439;SDS011;32138;50.966;6.968;2023-03-03T06:06:24;42.55;;;27.65;;
46439;SDS011;32138;50.966;6.968;2023-03-03T06:07:27;36.42;;;24.65;;
46439;SDS011;32138;50.966;6.968;2023-03-03T06:08:27;37.05;;;24.77;;
46439;SDS011;32138;50.966;6.968;2023-03-03T06:09:29;40.22;;;26.90;;
46439;SDS011;32138;50.966;6.968;2023-03-03T06:10:31;41.88;;;28.00;;
46439;SDS011;32138;50.966;6.968;2023-03-03T06:11:32;39.33;;;26.42;;
46439;SDS011;32138;50.966;6.968;2023-03-03T06:12:33;37.88;;;26.70;;
46439;SDS011;32138;50.966;6.968;2023-03-03T06:13:33;40.03;;;26.25;;
46439;SDS011;32138;50.966;6.968;2023-03-03T06:14:34;38.63;;;26.55;;
46439;SDS011;32138;50.966;6.968;2023-03-03T06:15:35;37.25;;;25.77;;
46439;SDS011;32138;50.966;6.968;2023-03-03T06:16:35;38.50;;;24.42;;